Terminal Aerodrome Forecast
Issued by NWS Wilmington, OH

Current Version | Previous Version | Graphics & Text | Print | Product List | Glossary Off
Versions: 1 2 3 4 5 6 7 8 9 10 11 12 13 14 15 16 17 18 19

000
FTUS41 KILN 171728
TAFCMH
TAF
KCMH 171728Z 1718/1818 24009KT P6SM FEW250
     FM172300 22003KT P6SM FEW250
     FM181400 18009KT P6SM SKC=

USA.gov is the U.S. government's official web portal to all federal, state and local government web resources and services.